createdAt,value
2022-11-22T00:03:16.488Z,77.54
2022-11-22T00:08:18.675Z,77.94
2022-11-22T00:13:21.469Z,77.74
2022-11-22T00:18:23.707Z,78.16
2022-11-22T00:23:25.991Z,77.48
2022-11-22T00:28:28.433Z,77.88
2022-11-22T00:33:30.705Z,77.77
2022-11-22T00:38:32.920Z,77.82
2022-11-22T00:43:35.064Z,77.80
2022-11-22T00:48:37.290Z,77.97
2022-11-22T00:53:39.374Z,78.03
2022-11-22T00:58:41.558Z,77.96
2022-11-22T01:03:43.728Z,78.00
2022-11-22T01:08:46.218Z,77.72
2022-11-22T01:13:48.467Z,78.39
2022-11-22T01:19:00.634Z,77.86
2022-11-22T01:24:08.724Z,78.22
2022-11-22T01:29:10.948Z,78.25
2022-11-22T01:34:13.417Z,78.17
2022-11-22T01:39:15.725Z,78.39
2022-11-22T01:44:35.921Z,79.16
2022-11-22T01:49:45.458Z,78.67
2022-11-22T01:54:48.905Z,79.00
2022-11-22T02:00:00.629Z,78.54
2022-11-22T02:05:05.479Z,78.12
2022-11-22T02:10:09.046Z,78.65
2022-11-22T02:15:12.310Z,78.79
2022-11-22T02:20:17.301Z,78.78
2022-11-22T02:25:58.393Z,79.35
2022-11-22T02:31:03.341Z,78.88
2022-11-22T02:36:05.725Z,78.99
2022-11-22T02:41:09.958Z,79.39
2022-11-22T02:46:16.903Z,79.14
2022-11-22T02:51:20.298Z,79.39
2022-11-22T02:56:22.662Z,79.31
2022-11-22T03:01:24.908Z,79.30
2022-11-22T03:06:27.342Z,79.33
2022-11-22T03:11:29.524Z,79.54
2022-11-22T03:16:31.965Z,79.58
2022-11-22T03:21:34.150Z,79.72
2022-11-22T03:26:36.748Z,79.77
2022-11-22T03:31:38.919Z,79.66
2022-11-22T03:36:41.127Z,79.61
2022-11-22T03:41:43.320Z,79.86
2022-11-22T03:46:45.460Z,79.85
2022-11-22T03:51:47.648Z,79.80
2022-11-22T03:56:49.800Z,80.09
2022-11-22T04:01:52.295Z,79.97
2022-11-22T04:06:54.617Z,80.08
2022-11-22T04:11:56.703Z,79.93
2022-11-22T04:16:58.843Z,80.26
2022-11-22T04:22:01.133Z,80.21
2022-11-22T04:27:03.480Z,80.08
2022-11-22T04:32:24.172Z,80.08
2022-11-22T04:37:26.460Z,80.06
2022-11-22T04:42:48.855Z,79.70
2022-11-22T04:47:59.886Z,80.48
2022-11-22T04:53:02.079Z,79.90
2022-11-22T04:58:04.326Z,80.51
2022-11-22T05:03:06.861Z,80.58
2022-11-22T05:08:09.880Z,80.58
2022-11-22T05:13:12.062Z,80.55
2022-11-22T05:18:14.330Z,80.38
2022-11-22T05:23:35.389Z,80.75
2022-11-22T05:28:38.648Z,80.74
2022-11-22T05:33:43.054Z,80.78
2022-11-22T05:38:45.341Z,80.74
2022-11-22T05:43:47.756Z,80.93
2022-11-22T05:48:50.224Z,80.72
2022-11-22T05:53:52.526Z,80.78
2022-11-22T05:58:54.875Z,80.68
2022-11-22T06:03:57.274Z,80.48
2022-11-22T06:09:00.276Z,80.56
2022-11-22T06:14:03.620Z,80.78
2022-11-22T06:19:05.845Z,80.75
2022-11-22T06:24:08.665Z,80.51
2022-11-22T06:29:11.033Z,80.94
2022-11-22T06:34:14.257Z,81.10
2022-11-22T06:39:16.457Z,81.32
2022-11-22T06:44:18.733Z,80.68
2022-11-22T06:49:21.024Z,81.05
2022-11-22T06:54:23.282Z,81.59
2022-11-22T06:59:25.591Z,81.29
2022-11-22T07:04:28.190Z,81.31
2022-11-22T07:09:30.518Z,81.79
2022-11-22T07:14:32.965Z,81.63
2022-11-22T07:19:35.226Z,82.08
2022-11-22T07:24:37.526Z,81.85
2022-11-22T07:29:39.823Z,82.28
2022-11-22T07:34:42.043Z,82.09
2022-11-22T07:39:44.257Z,81.89
2022-11-22T07:44:46.458Z,82.29
2022-11-22T07:49:48.738Z,82.24
2022-11-22T07:54:50.921Z,82.21
2022-11-22T07:59:53.226Z,82.10
2022-11-22T08:04:55.468Z,82.55
2022-11-22T08:09:57.754Z,82.03
2022-11-22T08:14:59.920Z,82.97
2022-11-22T08:20:02.541Z,82.16
2022-11-22T08:25:12.596Z,82.72
2022-11-22T08:30:15.746Z,82.65
2022-11-22T08:35:18.013Z,82.74
2022-11-22T08:40:20.285Z,83.18
2022-11-22T08:45:22.833Z,83.17
2022-11-22T08:50:25.113Z,82.95
2022-11-22T08:55:27.448Z,83.33
2022-11-22T09:00:33.446Z,83.49
2022-11-22T09:05:36.568Z,83.57
2022-11-22T09:10:39.142Z,83.48
2022-11-22T09:15:41.452Z,83.43
2022-11-22T09:20:43.697Z,83.78
2022-11-22T09:25:45.888Z,83.69
2022-11-22T09:30:48.240Z,83.66
2022-11-22T09:35:50.527Z,83.66
2022-11-22T09:40:53.121Z,83.84
2022-11-22T09:46:01.858Z,83.83
2022-11-22T09:51:08.714Z,83.87
2022-11-22T09:56:17.571Z,84.22
2022-11-22T10:01:27.815Z,84.04
2022-11-22T10:06:35.362Z,84.35
2022-11-22T10:11:41.472Z,84.16
2022-11-22T10:16:49.041Z,84.13
2022-11-22T10:21:51.238Z,84.25
2022-11-22T10:26:54.039Z,84.37
2022-11-22T10:32:01.210Z,84.11
2022-11-22T10:37:12.457Z,84.80
2022-11-22T10:42:23.964Z,84.63
2022-11-22T10:47:34.539Z,84.61
2022-11-22T10:52:40.014Z,84.71
2022-11-22T10:58:03.983Z,85.06
2022-11-22T11:03:27.496Z,85.00
2022-11-22T11:09:23.465Z,84.96
2022-11-22T11:14:11.087Z,84.59
2022-11-22T11:19:25.086Z,84.65
2022-11-22T11:24:30.591Z,84.23
2022-11-22T11:29:37.470Z,84.88
2022-11-22T11:34:54.125Z,85.31
2022-11-22T11:39:56.263Z,85.01
2022-11-22T11:45:20.461Z,85.33
2022-11-22T11:50:25.668Z,84.87
2022-11-22T11:55:31.546Z,84.96
2022-11-22T12:00:39.557Z,85.27
2022-11-22T12:05:41.850Z,84.90
2022-11-22T12:10:50.439Z,85.06
2022-11-22T12:15:59.527Z,85.19
2022-11-22T12:21:19.917Z,85.15
2022-11-22T12:26:22.237Z,85.22
2022-11-22T12:31:32.647Z,85.18
2022-11-22T12:36:51.103Z,85.71
2022-11-22T12:41:59.935Z,85.04
2022-11-22T12:47:08.958Z,85.00
2022-11-22T12:52:23.886Z,85.56
2022-11-22T12:57:48.692Z,85.21
2022-11-22T13:03:00.739Z,85.47
2022-11-22T13:08:17.219Z,85.60
2022-11-22T13:13:37.879Z,85.56
2022-11-22T13:18:51.462Z,85.67
2022-11-22T13:23:56.546Z,85.64
2022-11-22T13:28:59.856Z,85.73
2022-11-22T13:34:05.127Z,85.57
2022-11-22T13:39:13.078Z,85.85
2022-11-22T13:44:25.227Z,85.79
2022-11-22T13:49:36.930Z,85.80
2022-11-22T13:54:47.337Z,85.74
2022-11-22T14:00:12.543Z,85.86
2022-11-22T14:05:54.565Z,86.10
2022-11-22T14:11:02.328Z,85.84
2022-11-22T14:16:29.167Z,86.10
2022-11-22T14:21:50.410Z,86.03
2022-11-22T14:27:04.683Z,86.00
2022-11-22T14:32:23.824Z,85.93
2022-11-22T14:37:32.180Z,86.06
2022-11-22T14:42:47.350Z,86.04
2022-11-22T14:47:55.161Z,85.96
2022-11-22T14:53:08.379Z,86.27
2022-11-22T14:58:15.483Z,86.13
2022-11-22T15:03:40.000Z,86.33
2022-11-22T15:09:18.393Z,86.12
2022-11-22T15:14:31.394Z,86.21
2022-11-22T15:57:49.206Z,85.86
2022-11-22T16:02:54.633Z,86.18
2022-11-22T16:07:57.608Z,86.11
2022-11-22T16:13:19.960Z,85.83
2022-11-22T16:18:28.485Z,86.22
2022-11-22T16:23:38.008Z,86.18
2022-11-22T16:28:40.301Z,86.17
2022-11-22T16:33:42.617Z,86.17
2022-11-22T16:38:45.111Z,86.12
2022-11-22T16:43:51.293Z,86.17
2022-11-22T16:48:54.645Z,86.13
2022-11-22T16:53:59.833Z,86.17
2022-11-22T16:59:01.966Z,86.26
2022-11-22T17:04:05.180Z,85.94
2022-11-22T17:09:08.507Z,86.23
2022-11-22T17:14:15.437Z,86.17
2022-11-22T17:19:51.451Z,86.23
2022-11-22T17:24:39.854Z,86.11
2022-11-22T17:29:50.372Z,86.15
2022-11-22T17:34:53.161Z,86.25
2022-11-22T17:39:55.334Z,86.15
2022-11-22T17:44:57.558Z,86.27
2022-11-22T17:49:59.941Z,86.33
2022-11-22T17:55:06.223Z,86.26
2022-11-22T18:00:10.524Z,86.33
2022-11-22T18:05:13.228Z,86.27
2022-11-22T18:10:15.619Z,86.32
2022-11-22T18:15:18.031Z,86.08
2022-11-22T18:20:20.235Z,86.37
2022-11-22T18:25:22.505Z,86.30
2022-11-22T18:30:24.812Z,86.11
2022-11-22T18:35:27.685Z,86.12
2022-11-22T18:40:30.515Z,86.14
2022-11-22T18:45:33.827Z,86.12
2022-11-22T18:50:36.282Z,86.24
2022-11-22T18:55:38.642Z,86.42
2022-11-22T19:00:40.845Z,86.32
2022-11-22T19:05:43.092Z,86.38
2022-11-22T19:10:45.368Z,86.21
2022-11-22T19:15:47.715Z,86.29
2022-11-22T19:20:55.371Z,86.48
2022-11-22T19:25:58.224Z,86.18
2022-11-22T19:31:09.918Z,86.50
2022-11-22T19:36:14.750Z,86.29
2022-11-22T19:41:19.978Z,86.36
2022-11-22T19:46:22.362Z,86.50
2022-11-22T19:51:25.921Z,86.50
2022-11-22T19:56:30.790Z,85.87
2022-11-22T20:01:33.992Z,86.27
2022-11-22T20:06:37.060Z,85.89
2022-11-22T20:11:41.050Z,86.19
2022-11-22T20:16:43.660Z,86.04
2022-11-22T20:21:49.699Z,85.98
2022-11-22T20:26:51.925Z,86.02
2022-11-22T20:31:54.173Z,85.95
2022-11-22T20:36:57.570Z,86.02
2022-11-22T20:42:32.654Z,86.08
2022-11-22T20:47:25.209Z,86.50
2022-11-22T20:52:27.594Z,85.81
2022-11-22T20:57:29.963Z,85.84
2022-11-22T21:02:34.794Z,86.11
2022-11-22T21:07:37.148Z,86.11
2022-11-22T21:12:39.404Z,86.36
2022-11-22T21:17:56.117Z,86.46
2022-11-22T21:23:04.768Z,86.51
2022-11-22T21:28:07.058Z,86.58
2022-11-22T21:33:09.260Z,86.30
2022-11-22T21:38:13.882Z,86.54
2022-11-22T21:43:16.081Z,86.56
2022-11-22T21:48:19.229Z,86.22
2022-11-22T21:53:23.051Z,86.58
2022-11-22T21:58:26.438Z,86.47
2022-11-22T22:03:30.120Z,86.46
2022-11-22T22:08:32.497Z,86.35
2022-11-22T22:13:34.724Z,86.68
2022-11-22T22:18:37.926Z,86.19
2022-11-22T22:23:40.863Z,86.19
2022-11-22T22:28:45.369Z,86.26
2022-11-22T22:33:47.871Z,85.92
2022-11-22T22:38:50.467Z,86.32
2022-11-22T22:43:52.661Z,86.31
2022-11-22T22:48:57.656Z,86.37
2022-11-22T22:54:02.401Z,86.18
2022-11-22T22:59:05.464Z,86.49
2022-11-22T23:04:07.803Z,86.35
2022-11-22T23:09:11.365Z,86.45
2022-11-22T23:14:15.206Z,86.27
2022-11-22T23:19:17.476Z,86.19
2022-11-22T23:24:19.833Z,86.35
2022-11-22T23:29:22.018Z,86.11
2022-11-22T23:34:24.248Z,86.49
2022-11-22T23:39:26.477Z,86.40
2022-11-22T23:44:28.709Z,86.20
2022-11-22T23:49:31.190Z,86.17
2022-11-22T23:54:33.492Z,86.24
2022-11-22T23:59:35.664Z,86.19
